Time,TemperatureF,DewpointF,PressureIn,WindDirection,WindDirectionDegrees,WindSpeedMPH,WindSpeedGustMPH,Humidity,HourlyPrecipIn,Conditions,Clouds,dailyrainin,SoftwareType,DateUTC
2013-01-06 00:10:00,-6.7,-10.5,30.20,WSW,247,0.0,0.0,83,0.00,,,0.00,Wunderground v.1.15,2013-01-06 05:10:00,
2013-01-06 00:20:00,-7.1,-11.1,30.19,WSW,247,0.0,0.0,82,0.00,,,0.00,Wunderground v.1.15,2013-01-06 05:20:00,
2013-01-06 00:30:00,-6.7,-10.0,30.19,WSW,247,0.0,0.0,85,0.00,,,0.00,Wunderground v.1.15,2013-01-06 05:30:00,
2013-01-06 00:40:00,-6.4,-10.0,30.19,WSW,246,0.0,0.0,84,0.00,,,0.00,Wunderground v.1.15,2013-01-06 05:40:00,
2013-01-06 00:50:00,-6.2,-9.8,30.19,WSW,247,0.0,0.0,84,0.00,,,0.00,Wunderground v.1.15,2013-01-06 05:50:00,
2013-01-06 01:00:00,-5.7,-9.3,30.19,WSW,247,0.0,0.0,84,0.00,,,0.00,Wunderground v.1.15,2013-01-06 06:00:00,
2013-01-06 01:10:00,-5.9,-9.7,30.18,WSW,247,0.0,0.0,83,0.00,,,0.00,Wunderground v.1.15,2013-01-06 06:10:00,
2013-01-06 01:20:00,-6.1,-9.9,30.18,WSW,247,0.0,0.0,83,0.00,,,0.00,Wunderground v.1.15,2013-01-06 06:20:00,
2013-01-06 01:30:00,-6.3,-10.1,30.18,WSW,247,0.0,0.0,83,0.00,,,0.00,Wunderground v.1.15,2013-01-06 06:30:00,
2013-01-06 01:40:00,-5.9,-9.5,30.18,WSW,246,0.0,0.0,84,0.00,,,0.00,Wunderground v.1.15,2013-01-06 06:40:00,
2013-01-06 01:50:00,-5.5,-9.1,30.18,WSW,246,0.0,0.0,84,0.00,,,0.00,Wunderground v.1.15,2013-01-06 06:50:00,
2013-01-06 02:00:00,-4.9,-8.3,30.18,WSW,247,0.0,0.0,85,0.00,,,0.00,Wunderground v.1.15,2013-01-06 07:00:00,
2013-01-06 02:10:00,-4.7,-8.3,30.18,WSW,247,0.0,0.0,84,0.00,,,0.00,Wunderground v.1.15,2013-01-06 07:10:00,
2013-01-06 02:20:00,-4.4,-7.8,30.17,WSW,246,0.0,0.0,85,0.00,,,0.00,Wunderground v.1.15,2013-01-06 07:20:00,
2013-01-06 02:30:00,-4.5,-8.1,30.17,WSW,247,0.0,0.0,84,0.00,,,0.00,Wunderground v.1.15,2013-01-06 07:30:00,
2013-01-06 02:40:00,-4.6,-8.2,30.16,WSW,246,0.0,0.0,84,0.00,,,0.00,Wunderground v.1.15,2013-01-06 07:40:00,
2013-01-06 02:50:00,-4.9,-8.7,30.16,WSW,247,0.0,0.0,83,0.00,,,0.00,Wunderground v.1.15,2013-01-06 07:50:00,
2013-01-06 03:00:00,-4.4,-7.5,30.16,WSW,246,0.0,0.0,86,0.00,,,0.00,Wunderground v.1.15,2013-01-06 08:00:00,
2013-01-06 03:10:00,-4.2,-7.8,30.15,WSW,247,0.0,0.0,84,0.00,,,0.00,Wunderground v.1.15,2013-01-06 08:10:00,
2013-01-06 03:20:00,-4.5,-8.4,30.15,WSW,247,0.0,0.0,83,0.00,,,0.00,Wunderground v.1.15,2013-01-06 08:20:00,
2013-01-06 03:30:00,-4.6,-8.2,30.15,WSW,246,0.0,0.0,84,0.00,,,0.00,Wunderground v.1.15,2013-01-06 08:30:00,
2013-01-06 03:40:00,-4.4,-7.8,30.14,WSW,247,0.0,0.0,85,0.00,,,0.00,Wunderground v.1.15,2013-01-06 08:40:00,
2013-01-06 03:50:00,-4.3,-7.9,30.14,WSW,246,0.0,0.0,84,0.00,,,0.00,Wunderground v.1.15,2013-01-06 08:50:00,
2013-01-06 04:00:00,-3.8,-7.2,30.14,WSW,247,0.0,0.0,85,0.00,,,0.00,Wunderground v.1.15,2013-01-06 09:00:00,
2013-01-06 04:10:00,-3.5,-6.9,30.13,WSW,247,0.0,0.0,85,0.00,,,0.00,Wunderground v.1.15,2013-01-06 09:10:00,
2013-01-06 04:20:00,-3.4,-7.0,30.12,WSW,247,0.0,0.0,84,0.00,,,0.00,Wunderground v.1.15,2013-01-06 09:20:00,
2013-01-06 04:30:00,-3.6,-7.2,30.11,WSW,247,0.0,0.0,84,0.00,,,0.00,Wunderground v.1.15,2013-01-06 09:30:00,
2013-01-06 04:40:00,-3.6,-7.2,30.11,WSW,246,0.0,0.0,84,0.00,,,0.00,Wunderground v.1.15,2013-01-06 09:40:00,
2013-01-06 04:50:00,-3.5,-7.1,30.12,WSW,247,0.0,0.0,84,0.00,,,0.00,Wunderground v.1.15,2013-01-06 09:50:00,
2013-01-06 05:00:00,-3.4,-7.0,30.12,WSW,247,0.0,0.0,84,0.00,,,0.00,Wunderground v.1.15,2013-01-06 10:00:00,
2013-01-06 05:10:00,-4.0,-7.9,30.12,WSW,247,0.0,0.0,83,0.00,,,0.00,Wunderground v.1.15,2013-01-06 10:10:00,
2013-01-06 05:20:00,-4.7,-8.5,30.11,WSW,246,0.0,0.0,83,0.00,,,0.00,Wunderground v.1.15,2013-01-06 10:20:00,
2013-01-06 05:30:00,-5.0,-8.8,30.10,WSW,247,0.0,0.0,83,0.00,,,0.00,Wunderground v.1.15,2013-01-06 10:30:00,
2013-01-06 05:40:00,-5.0,-8.6,30.10,WSW,247,0.0,0.0,84,0.00,,,0.00,Wunderground v.1.15,2013-01-06 10:40:00,
2013-01-06 05:50:00,-4.5,-7.9,30.11,WSW,246,0.0,0.0,85,0.00,,,0.00,Wunderground v.1.15,2013-01-06 10:50:00,
2013-01-06 06:00:00,-4.0,-7.4,30.10,WSW,246,0.0,0.0,85,0.00,,,0.00,Wunderground v.1.15,2013-01-06 11:00:00,
2013-01-06 06:10:00,-3.6,-7.0,30.10,WSW,247,0.0,0.0,85,0.00,,,0.00,Wunderground v.1.15,2013-01-06 11:10:00,
2013-01-06 06:20:00,-3.2,-6.6,30.09,WSW,247,0.0,0.0,85,0.00,,,0.00,Wunderground v.1.15,2013-01-06 11:20:00,
2013-01-06 06:30:00,-2.9,-6.3,30.10,WSW,247,0.0,0.0,85,0.00,,,0.00,Wunderground v.1.15,2013-01-06 11:30:00,
2013-01-06 06:40:00,-2.5,-5.9,30.09,WSW,247,0.0,0.0,85,0.00,,,0.00,Wunderground v.1.15,2013-01-06 11:40:00,
2013-01-06 06:50:00,-2.2,-5.6,30.09,WSW,246,0.0,0.0,85,0.00,,,0.00,Wunderground v.1.15,2013-01-06 11:50:00,
2013-01-06 07:00:00,-1.7,-4.9,30.09,WSW,246,0.0,0.0,86,0.00,,,0.00,Wunderground v.1.15,2013-01-06 12:00:00,
2013-01-06 07:10:00,-1.3,-4.5,30.09,WSW,246,0.0,0.0,86,0.00,,,0.00,Wunderground v.1.15,2013-01-06 12:10:00,
2013-01-06 07:20:00,-1.1,-4.3,30.09,WSW,247,0.0,0.0,86,0.00,,,0.00,Wunderground v.1.15,2013-01-06 12:20:00,
2013-01-06 07:30:00,-0.8,-4.2,30.09,WSW,247,0.0,0.0,85,0.00,,,0.00,Wunderground v.1.15,2013-01-06 12:30:00,
2013-01-06 07:40:00,-0.7,-4.1,30.08,WSW,247,0.0,0.0,85,0.00,,,0.00,Wunderground v.1.15,2013-01-06 12:40:00,
2013-01-06 07:50:00,-0.4,-3.8,30.09,WSW,246,0.0,0.0,85,0.00,,,0.00,Wunderground v.1.15,2013-01-06 12:50:00,
2013-01-06 08:00:00,-0.2,-3.6,30.09,WSW,247,0.0,0.0,85,0.00,,,0.00,Wunderground v.1.15,2013-01-06 13:00:00,
2013-01-06 08:10:00,0.0,-3.4,30.08,WSW,247,0.0,0.0,85,0.00,,,0.00,Wunderground v.1.15,2013-01-06 13:10:00,
2013-01-06 08:20:00,0.4,-3.0,30.08,WSW,246,0.0,0.0,85,0.00,,,0.00,Wunderground v.1.15,2013-01-06 13:20:00,
2013-01-06 08:30:00,0.6,-2.8,30.08,WSW,247,0.0,0.0,85,0.00,,,0.00,Wunderground v.1.15,2013-01-06 13:30:00,
2013-01-06 08:40:00,0.6,-3.1,30.08,WSW,247,0.0,0.0,84,0.00,,,0.00,Wunderground v.1.15,2013-01-06 13:40:00,
2013-01-06 08:50:00,0.6,-3.1,30.08,WSW,247,0.0,0.0,84,0.00,,,0.00,Wunderground v.1.15,2013-01-06 13:50:00,
2013-01-06 09:00:00,1.1,-2.4,30.08,WSW,247,0.0,0.0,85,0.00,,,0.00,Wunderground v.1.15,2013-01-06 14:00:00,
2013-01-06 09:10:00,1.7,-1.8,30.09,WSW,246,0.0,0.0,85,0.00,,,0.00,Wunderground v.1.15,2013-01-06 14:10:00,
2013-01-06 09:20:00,2.5,-1.2,30.09,WSW,247,0.0,0.0,84,0.00,,,0.00,Wunderground v.1.15,2013-01-06 14:20:00,
2013-01-06 09:30:00,3.2,-0.5,30.09,WSW,247,0.0,0.0,84,0.00,,,0.00,Wunderground v.1.15,2013-01-06 14:30:00,
2013-01-06 09:40:00,3.7,-0.1,30.09,WSW,247,0.0,0.0,84,0.00,,,0.00,Wunderground v.1.15,2013-01-06 14:40:00,
2013-01-06 09:50:00,3.6,-0.2,30.09,West,272,1.0,2.0,84,0.00,,,0.00,Wunderground v.1.15,2013-01-06 14:50:00,
2013-01-06 10:00:00,3.7,-0.1,30.09,West,273,2.0,3.0,84,0.00,,,0.00,Wunderground v.1.15,2013-01-06 15:00:00,
2013-01-06 10:10:00,3.7,-0.1,30.09,West,273,2.0,2.0,84,0.00,,,0.00,Wunderground v.1.15,2013-01-06 15:10:00,
2013-01-06 10:20:00,4.1,0.3,30.08,West,273,0.0,0.0,84,0.00,,,0.00,Wunderground v.1.15,2013-01-06 15:20:00,
2013-01-06 10:30:00,4.8,1.0,30.08,West,273,0.0,0.0,84,0.00,,,0.00,Wunderground v.1.15,2013-01-06 15:30:00,
2013-01-06 10:40:00,5.5,1.7,30.07,West,273,0.0,0.0,84,0.00,,,0.00,Wunderground v.1.15,2013-01-06 15:40:00,
2013-01-06 10:50:00,6.3,2.2,30.07,West,272,0.0,0.0,83,0.00,,,0.00,Wunderground v.1.15,2013-01-06 15:50:00,
2013-01-06 11:00:00,7.2,3.1,30.06,West,272,0.0,0.0,83,0.00,,,0.00,Wunderground v.1.15,2013-01-06 16:00:00,
2013-01-06 11:10:00,7.6,3.3,30.06,West,273,0.0,0.0,82,0.00,,,0.00,Wunderground v.1.15,2013-01-06 16:10:00,
2013-01-06 11:20:00,8.1,3.7,30.04,West,273,0.0,0.0,82,0.00,,,0.00,Wunderground v.1.15,2013-01-06 16:20:00,
2013-01-06 11:30:00,8.8,4.2,30.03,West,273,0.0,0.0,81,0.00,,,0.00,Wunderground v.1.15,2013-01-06 16:30:00,
2013-01-06 11:40:00,9.2,4.6,30.03,West,273,0.0,0.0,81,0.00,,,0.00,Wunderground v.1.15,2013-01-06 16:40:00,
2013-01-06 11:50:00,9.5,4.3,30.03,West,273,0.0,0.0,79,0.00,,,0.00,Wunderground v.1.15,2013-01-06 16:50:00,
2013-01-06 12:00:00,9.5,4.6,30.03,West,273,0.0,0.0,80,0.00,,,0.00,Wunderground v.1.15,2013-01-06 17:00:00,
2013-01-06 12:10:00,9.5,4.6,30.03,West,273,0.0,0.0,80,0.00,,,0.00,Wunderground v.1.15,2013-01-06 17:10:00,
2013-01-06 12:20:00,9.9,5.0,30.02,West,273,0.0,0.0,80,0.00,,,0.00,Wunderground v.1.15,2013-01-06 17:20:00,
2013-01-06 12:30:00,9.6,4.9,30.02,West,273,0.0,0.0,81,0.00,,,0.00,Wunderground v.1.15,2013-01-06 17:30:00,
2013-01-06 12:40:00,9.9,5.5,30.02,West,273,0.0,0.0,82,0.00,,,0.00,Wunderground v.1.15,2013-01-06 17:40:00,
2013-01-06 12:50:00,10.0,5.6,30.01,West,273,0.0,0.0,82,0.00,,,0.00,Wunderground v.1.15,2013-01-06 17:50:00,
2013-01-06 13:00:00,10.1,6.0,30.01,West,272,0.0,0.0,83,0.00,,,0.00,Wunderground v.1.15,2013-01-06 18:00:00,
2013-01-06 13:10:00,10.4,6.3,30.01,West,273,0.0,0.0,83,0.00,,,0.00,Wunderground v.1.15,2013-01-06 18:10:00,
2013-01-06 13:20:00,10.7,6.6,30.00,West,273,0.0,0.0,83,0.00,,,0.00,Wunderground v.1.15,2013-01-06 18:20:00,
2013-01-06 13:30:00,10.8,6.7,30.00,West,272,0.0,0.0,83,0.00,,,0.00,Wunderground v.1.15,2013-01-06 18:30:00,
2013-01-06 13:40:00,11.2,7.0,30.00,West,273,0.0,0.0,83,0.00,,,0.00,Wunderground v.1.15,2013-01-06 18:40:00,
2013-01-06 13:50:00,11.1,6.7,29.99,West,272,0.0,0.0,82,0.00,,,0.00,Wunderground v.1.15,2013-01-06 18:50:00,
2013-01-06 14:00:00,11.2,7.0,30.00,West,273,0.0,0.0,83,0.00,,,0.00,Wunderground v.1.15,2013-01-06 19:00:00,
2013-01-06 14:10:00,11.2,6.8,30.00,West,273,0.0,0.0,82,0.00,,,0.00,Wunderground v.1.15,2013-01-06 19:10:00,
2013-01-06 14:20:00,11.0,6.8,30.00,West,273,0.0,0.0,83,0.00,,,0.00,Wunderground v.1.15,2013-01-06 19:20:00,
2013-01-06 14:30:00,10.9,6.8,30.00,West,272,0.0,0.0,83,0.00,,,0.00,Wunderground v.1.15,2013-01-06 19:30:00,
2013-01-06 14:40:00,11.0,6.8,30.00,West,273,0.0,0.0,83,0.00,,,0.00,Wunderground v.1.15,2013-01-06 19:40:00,
2013-01-06 14:50:00,11.1,6.9,30.00,West,273,0.0,0.0,83,0.00,,,0.00,Wunderground v.1.15,2013-01-06 19:50:00,
2013-01-06 15:00:00,11.2,7.0,30.00,West,273,0.0,0.0,83,0.00,,,0.00,Wunderground v.1.15,2013-01-06 20:00:00,
2013-01-06 15:10:00,11.3,7.1,30.00,West,273,0.0,0.0,83,0.00,,,0.00,Wunderground v.1.15,2013-01-06 20:10:00,
2013-01-06 15:20:00,11.4,7.2,30.00,West,273,0.0,0.0,83,0.00,,,0.00,Wunderground v.1.15,2013-01-06 20:20:00,
2013-01-06 15:30:00,11.3,7.4,30.00,West,272,0.0,0.0,84,0.00,,,0.00,Wunderground v.1.15,2013-01-06 20:30:00,
2013-01-06 15:40:00,11.0,7.1,30.00,West,273,0.0,0.0,84,0.00,,,0.00,Wunderground v.1.15,2013-01-06 20:40:00,
2013-01-06 15:50:00,10.9,7.3,30.00,West,273,0.0,0.0,85,0.00,,,0.00,Wunderground v.1.15,2013-01-06 20:50:00,
2013-01-06 16:00:00,11.0,7.4,30.01,West,273,0.0,0.0,85,0.00,,,0.00,Wunderground v.1.15,2013-01-06 21:00:00,
2013-01-06 16:10:00,11.0,7.6,30.01,West,273,0.0,0.0,86,0.00,,,0.00,Wunderground v.1.15,2013-01-06 21:10:00,
2013-01-06 16:20:00,10.9,7.5,30.02,West,273,0.0,0.0,86,0.00,,,0.00,Wunderground v.1.15,2013-01-06 21:20:00,
2013-01-06 16:30:00,10.9,7.5,30.02,West,273,0.0,0.0,86,0.00,,,0.00,Wunderground v.1.15,2013-01-06 21:30:00,
2013-01-06 16:40:00,10.8,7.4,30.02,West,273,0.0,0.0,86,0.00,,,0.00,Wunderground v.1.15,2013-01-06 21:40:00,
2013-01-06 16:50:00,10.5,7.1,30.02,West,273,0.0,0.0,86,0.00,,,0.00,Wunderground v.1.15,2013-01-06 21:50:00,
2013-01-06 17:00:00,10.5,7.4,30.02,West,273,0.0,0.0,87,0.00,,,0.00,Wunderground v.1.15,2013-01-06 22:00:00,
2013-01-06 17:10:00,10.5,7.4,30.02,West,273,0.0,0.0,87,0.00,,,0.00,Wunderground v.1.15,2013-01-06 22:10:00,
2013-01-06 17:20:00,10.6,7.2,30.03,West,272,0.0,0.0,86,0.00,,,0.00,Wunderground v.1.15,2013-01-06 22:20:00,
2013-01-06 17:30:00,10.9,7.5,30.03,West,281,1.0,1.0,86,0.00,,,0.00,Wunderground v.1.15,2013-01-06 22:30:00,
2013-01-06 17:40:00,11.0,7.6,30.03,WNW,284,1.0,1.0,86,0.00,,,0.00,Wunderground v.1.15,2013-01-06 22:40:00,
2013-01-06 17:50:00,11.0,7.6,30.04,WNW,284,1.0,1.0,86,0.00,,,0.00,Wunderground v.1.15,2013-01-06 22:50:00,
2013-01-06 18:00:00,10.8,7.4,30.04,WNW,284,0.0,0.0,86,0.00,,,0.00,Wunderground v.1.15,2013-01-06 23:00:00,
2013-01-06 18:10:00,10.7,7.3,30.04,WNW,284,0.0,0.0,86,0.00,,,0.00,Wunderground v.1.15,2013-01-06 23:10:00,
2013-01-06 18:20:00,10.4,7.0,30.04,WNW,284,0.0,0.0,86,0.00,,,0.00,Wunderground v.1.15,2013-01-06 23:20:00,
2013-01-06 18:30:00,10.1,6.7,30.04,WNW,284,0.0,0.0,86,0.00,,,0.00,Wunderground v.1.15,2013-01-06 23:30:00,
2013-01-06 18:40:00,9.9,6.8,30.05,WNW,284,1.0,1.0,87,0.00,,,0.00,Wunderground v.1.15,2013-01-06 23:40:00,
2013-01-06 18:50:00,9.9,6.8,30.05,WNW,284,0.0,2.0,87,0.00,,,0.00,Wunderground v.1.15,2013-01-06 23:50:00,
2013-01-06 19:00:00,9.9,6.8,30.05,WNW,286,1.0,1.0,87,0.00,,,0.00,Wunderground v.1.15,2013-01-07 00:00:00,
2013-01-06 19:10:00,9.8,6.5,30.06,WNW,286,0.0,0.0,86,0.00,,,0.00,Wunderground v.1.15,2013-01-07 00:10:00,
2013-01-06 19:20:00,9.6,6.3,30.06,North,350,1.0,2.0,86,0.00,,,0.00,Wunderground v.1.15,2013-01-07 00:20:00,
2013-01-06 19:31:00,9.5,5.9,30.06,North,351,1.0,3.0,85,0.00,,,0.00,Wunderground v.1.15,2013-01-07 00:31:00,
2013-01-06 19:40:00,9.4,5.5,30.07,North,351,2.0,3.0,84,0.00,,,0.00,Wunderground v.1.15,2013-01-07 00:40:00,
2013-01-06 19:50:00,9.7,3.7,30.07,NNW,337,7.0,7.0,76,0.00,,,0.00,Wunderground v.1.15,2013-01-07 00:50:00,
2013-01-06 20:00:00,9.4,3.4,30.07,NNW,341,5.0,5.0,76,0.00,,,0.00,Wunderground v.1.15,2013-01-07 01:00:00,
2013-01-06 20:10:00,9.2,2.6,30.08,NNW,348,5.0,5.0,74,0.00,,,0.00,Wunderground v.1.15,2013-01-07 01:10:00,
2013-01-06 20:20:00,9.1,1.9,30.07,North,350,5.0,5.0,72,0.00,,,0.00,Wunderground v.1.15,2013-01-07 01:20:00,
2013-01-06 20:30:00,8.6,2.0,30.08,NNW,348,4.0,7.0,74,0.00,,,0.00,Wunderground v.1.15,2013-01-07 01:30:00,
2013-01-06 20:40:00,8.4,1.5,30.08,NNW,342,4.0,4.0,73,0.00,,,0.00,Wunderground v.1.15,2013-01-07 01:40:00,
2013-01-06 20:50:00,8.0,1.1,30.08,North,360,3.0,3.0,73,0.00,,,0.00,Wunderground v.1.15,2013-01-07 01:50:00,
2013-01-06 21:00:00,7.8,0.9,30.08,NNW,344,2.0,4.0,73,0.00,,,0.00,Wunderground v.1.15,2013-01-07 02:00:00,
2013-01-06 21:10:00,7.4,0.6,30.08,NNW,344,2.0,2.0,73,0.00,,,0.00,Wunderground v.1.15,2013-01-07 02:10:00,
2013-01-06 21:20:00,7.1,0.6,30.08,NNW,344,1.0,2.0,74,0.00,,,0.00,Wunderground v.1.15,2013-01-07 02:20:00,
2013-01-06 21:30:00,6.9,0.6,30.09,NNW,344,2.0,2.0,75,0.00,,,0.00,Wunderground v.1.15,2013-01-07 02:30:00,
2013-01-06 21:40:00,6.8,0.6,30.09,NNW,344,1.0,1.0,75,0.00,,,0.00,Wunderground v.1.15,2013-01-07 02:40:00,
2013-01-06 21:50:00,6.4,0.4,30.09,NNW,344,1.0,2.0,76,0.00,,,0.00,Wunderground v.1.15,2013-01-07 02:50:00,
2013-01-06 22:00:00,6.3,0.6,30.10,NNW,344,2.0,3.0,77,0.00,,,0.00,Wunderground v.1.15,2013-01-07 03:00:00,
2013-01-06 22:10:00,6.3,0.6,30.10,NNW,344,1.0,1.0,77,0.00,,,0.00,Wunderground v.1.15,2013-01-07 03:10:00,
2013-01-06 22:20:00,6.2,0.5,30.10,NNW,344,0.0,0.0,77,0.00,,,0.00,Wunderground v.1.15,2013-01-07 03:20:00,
2013-01-06 22:31:00,5.8,0.1,30.10,NNW,344,2.0,3.0,77,0.00,,,0.00,Wunderground v.1.15,2013-01-07 03:31:00,
2013-01-06 22:40:00,5.9,0.2,30.11,NNE,12,4.0,4.0,77,0.00,,,0.00,Wunderground v.1.15,2013-01-07 03:40:00,
2013-01-06 22:50:00,5.9,0.2,30.11,North,360,4.0,4.0,77,0.00,,,0.00,Wunderground v.1.15,2013-01-07 03:50:00,
2013-01-06 23:00:00,5.5,-0.1,30.11,North,360,2.0,3.0,77,0.00,,,0.00,Wunderground v.1.15,2013-01-07 04:00:00,
2013-01-06 23:10:00,5.3,-0.6,30.11,North,360,3.0,4.0,76,0.00,,,0.00,Wunderground v.1.15,2013-01-07 04:10:00,
2013-01-06 23:20:00,5.0,-1.2,30.12,NNW,348,3.0,3.0,75,0.00,,,0.00,Wunderground v.1.15,2013-01-07 04:20:00,
2013-01-06 23:30:00,4.8,-1.7,30.13,North,10,4.0,4.0,74,0.00,,,0.00,Wunderground v.1.15,2013-01-07 04:30:00,
2013-01-06 23:40:00,4.7,-1.8,30.13,North,360,6.0,6.0,74,0.00,,,0.00,Wunderground v.1.15,2013-01-07 04:40:00,
2013-01-06 23:50:00,4.4,-1.8,30.13,North,360,3.0,3.0,75,0.00,,,0.00,Wunderground v.1.15,2013-01-07 04:50:00,